sensor_id;sensor_type;location;lat;lon;timestamp;P1;durP1;ratioP1;P2;durP2;ratioP2
46757;SDS011;32509;47.750;-3.396;2024-02-28T00:02:01;39.72;;;36.72;;
46757;SDS011;32509;47.750;-3.396;2024-02-28T00:04:27;40.85;;;37.80;;
46757;SDS011;32509;47.750;-3.396;2024-02-28T00:06:53;41.67;;;38.67;;
46757;SDS011;32509;47.750;-3.396;2024-02-28T00:09:19;41.47;;;38.38;;
46757;SDS011;32509;47.750;-3.396;2024-02-28T00:11:46;40.35;;;36.83;;
46757;SDS011;32509;47.750;-3.396;2024-02-28T00:14:12;38.53;;;35.63;;
46757;SDS011;32509;47.750;-3.396;2024-02-28T00:16:45;38.28;;;35.65;;
46757;SDS011;32509;47.750;-3.396;2024-02-28T00:19:11;38.30;;;35.10;;
46757;SDS011;32509;47.750;-3.396;2024-02-28T00:21:38;39.28;;;36.58;;
46757;SDS011;32509;47.750;-3.396;2024-02-28T00:24:04;38.97;;;35.95;;
46757;SDS011;32509;47.750;-3.396;2024-02-28T00:26:31;35.90;;;33.45;;
46757;SDS011;32509;47.750;-3.396;2024-02-28T00:28:57;35.55;;;32.75;;
46757;SDS011;32509;47.750;-3.396;2024-02-28T00:31:23;36.60;;;34.30;;
46757;SDS011;32509;47.750;-3.396;2024-02-28T00:33:49;36.95;;;34.03;;
46757;SDS011;32509;47.750;-3.396;2024-02-28T00:36:15;34.63;;;32.00;;
46757;SDS011;32509;47.750;-3.396;2024-02-28T00:38:41;35.92;;;33.42;;
46757;SDS011;32509;47.750;-3.396;2024-02-28T00:41:07;37.70;;;35.10;;
46757;SDS011;32509;47.750;-3.396;2024-02-28T00:43:34;38.63;;;35.88;;
46757;SDS011;32509;47.750;-3.396;2024-02-28T00:46:00;35.90;;;33.40;;
46757;SDS011;32509;47.750;-3.396;2024-02-28T00:48:26;34.63;;;31.90;;
46757;SDS011;32509;47.750;-3.396;2024-02-28T00:50:55;35.63;;;32.63;;
46757;SDS011;32509;47.750;-3.396;2024-02-28T00:53:21;36.70;;;33.95;;
46757;SDS011;32509;47.750;-3.396;2024-02-28T00:55:47;37.15;;;34.33;;
46757;SDS011;32509;47.750;-3.396;2024-02-28T00:58:14;34.42;;;31.92;;
46757;SDS011;32509;47.750;-3.396;2024-02-28T01:00:40;34.10;;;31.90;;
46757;SDS011;32509;47.750;-3.396;2024-02-28T01:03:06;34.42;;;32.05;;
46757;SDS011;32509;47.750;-3.396;2024-02-28T01:30:38;32.80;;;30.08;;
46757;SDS011;32509;47.750;-3.396;2024-02-28T01:33:04;35.17;;;32.40;;
46757;SDS011;32509;47.750;-3.396;2024-02-28T01:35:30;31.70;;;29.58;;
46757;SDS011;32509;47.750;-3.396;2024-02-28T01:37:56;32.78;;;30.33;;
46757;SDS011;32509;47.750;-3.396;2024-02-28T01:40:22;32.58;;;30.48;;
46757;SDS011;32509;47.750;-3.396;2024-02-28T01:42:49;31.27;;;29.27;;
46757;SDS011;32509;47.750;-3.396;2024-02-28T01:45:15;32.78;;;30.35;;
46757;SDS011;32509;47.750;-3.396;2024-02-28T01:47:41;32.28;;;30.08;;
46757;SDS011;32509;47.750;-3.396;2024-02-28T01:50:09;32.92;;;30.83;;
46757;SDS011;32509;47.750;-3.396;2024-02-28T01:52:35;32.90;;;30.63;;
46757;SDS011;32509;47.750;-3.396;2024-02-28T01:55:02;33.80;;;31.55;;
46757;SDS011;32509;47.750;-3.396;2024-02-28T01:57:28;33.95;;;31.77;;
46757;SDS011;32509;47.750;-3.396;2024-02-28T01:59:55;34.22;;;31.90;;
46757;SDS011;32509;47.750;-3.396;2024-02-28T02:02:22;31.98;;;29.98;;
46757;SDS011;32509;47.750;-3.396;2024-02-28T02:04:48;31.70;;;29.25;;
46757;SDS011;32509;47.750;-3.396;2024-02-28T02:07:14;31.48;;;29.25;;
46757;SDS011;32509;47.750;-3.396;2024-02-28T02:09:40;30.55;;;28.58;;
46757;SDS011;32509;47.750;-3.396;2024-02-28T02:12:06;31.63;;;29.52;;
46757;SDS011;32509;47.750;-3.396;2024-02-28T02:14:32;31.30;;;29.15;;
46757;SDS011;32509;47.750;-3.396;2024-02-28T02:16:58;30.23;;;28.42;;
46757;SDS011;32509;47.750;-3.396;2024-02-28T02:19:24;32.70;;;30.27;;
46757;SDS011;32509;47.750;-3.396;2024-02-28T02:21:55;33.53;;;31.38;;
46757;SDS011;32509;47.750;-3.396;2024-02-28T02:24:23;32.50;;;29.90;;
46757;SDS011;32509;47.750;-3.396;2024-02-28T02:26:49;32.50;;;30.40;;
46757;SDS011;32509;47.750;-3.396;2024-02-28T02:29:17;32.50;;;30.25;;
46757;SDS011;32509;47.750;-3.396;2024-02-28T02:31:43;32.63;;;29.95;;
46757;SDS011;32509;47.750;-3.396;2024-02-28T02:34:09;32.38;;;30.27;;
46757;SDS011;32509;47.750;-3.396;2024-02-28T02:36:35;31.20;;;29.05;;
46757;SDS011;32509;47.750;-3.396;2024-02-28T02:39:01;32.75;;;30.48;;
46757;SDS011;32509;47.750;-3.396;2024-02-28T02:41:27;30.75;;;28.52;;
46757;SDS011;32509;47.750;-3.396;2024-02-28T02:43:54;28.92;;;26.90;;
46757;SDS011;32509;47.750;-3.396;2024-02-28T02:46:20;28.48;;;26.88;;
46757;SDS011;32509;47.750;-3.396;2024-02-28T02:48:46;29.65;;;27.50;;
46757;SDS011;32509;47.750;-3.396;2024-02-28T02:51:12;30.02;;;27.83;;
46757;SDS011;32509;47.750;-3.396;2024-02-28T02:53:38;30.67;;;28.48;;
46757;SDS011;32509;47.750;-3.396;2024-02-28T02:56:04;29.38;;;27.38;;
46757;SDS011;32509;47.750;-3.396;2024-02-28T02:58:30;28.67;;;26.60;;
46757;SDS011;32509;47.750;-3.396;2024-02-28T03:00:56;29.15;;;26.90;;
46757;SDS011;32509;47.750;-3.396;2024-02-28T03:03:22;29.83;;;28.02;;
46757;SDS011;32509;47.750;-3.396;2024-02-28T03:05:48;29.05;;;26.90;;
46757;SDS011;32509;47.750;-3.396;2024-02-28T03:08:14;29.75;;;27.70;;
46757;SDS011;32509;47.750;-3.396;2024-02-28T03:10:40;29.42;;;27.58;;
46757;SDS011;32509;47.750;-3.396;2024-02-28T03:13:07;29.92;;;27.90;;
46757;SDS011;32509;47.750;-3.396;2024-02-28T03:15:33;29.77;;;27.67;;
46757;SDS011;32509;47.750;-3.396;2024-02-28T03:17:59;28.60;;;26.70;;
46757;SDS011;32509;47.750;-3.396;2024-02-28T03:20:25;28.40;;;26.05;;
46757;SDS011;32509;47.750;-3.396;2024-02-28T03:22:51;28.08;;;26.48;;
46757;SDS011;32509;47.750;-3.396;2024-02-28T03:25:17;29.33;;;27.42;;
46757;SDS011;32509;47.750;-3.396;2024-02-28T03:27:43;27.83;;;26.15;;
46757;SDS011;32509;47.750;-3.396;2024-02-28T03:30:09;28.55;;;26.75;;
46757;SDS011;32509;47.750;-3.396;2024-02-28T03:32:35;29.02;;;27.30;;
46757;SDS011;32509;47.750;-3.396;2024-02-28T03:35:02;29.13;;;27.42;;
46757;SDS011;32509;47.750;-3.396;2024-02-28T03:37:29;27.70;;;26.08;;
46757;SDS011;32509;47.750;-3.396;2024-02-28T03:39:55;27.23;;;25.55;;
46757;SDS011;32509;47.750;-3.396;2024-02-28T03:42:21;27.30;;;25.80;;
46757;SDS011;32509;47.750;-3.396;2024-02-28T03:44:47;28.33;;;26.55;;
46757;SDS011;32509;47.750;-3.396;2024-02-28T03:47:13;26.55;;;24.88;;
46757;SDS011;32509;47.750;-3.396;2024-02-28T03:49:40;28.58;;;26.75;;
46757;SDS011;32509;47.750;-3.396;2024-02-28T03:52:06;28.08;;;26.48;;
46757;SDS011;32509;47.750;-3.396;2024-02-28T03:54:32;26.67;;;24.75;;
46757;SDS011;32509;47.750;-3.396;2024-02-28T03:56:58;26.67;;;25.05;;
46757;SDS011;32509;47.750;-3.396;2024-02-28T03:59:24;28.15;;;26.25;;
46757;SDS011;32509;47.750;-3.396;2024-02-28T04:01:50;27.60;;;26.00;;
46757;SDS011;32509;47.750;-3.396;2024-02-28T04:04:16;28.50;;;26.88;;
46757;SDS011;32509;47.750;-3.396;2024-02-28T04:06:42;28.67;;;26.98;;
46757;SDS011;32509;47.750;-3.396;2024-02-28T04:09:08;28.58;;;26.38;;
46757;SDS011;32509;47.750;-3.396;2024-02-28T04:11:36;28.90;;;26.90;;
46757;SDS011;32509;47.750;-3.396;2024-02-28T04:14:03;26.80;;;25.13;;
46757;SDS011;32509;47.750;-3.396;2024-02-28T04:16:29;26.13;;;24.52;;
46757;SDS011;32509;47.750;-3.396;2024-02-28T04:18:55;26.23;;;24.42;;
46757;SDS011;32509;47.750;-3.396;2024-02-28T04:21:21;26.33;;;24.45;;
46757;SDS011;32509;47.750;-3.396;2024-02-28T04:23:47;26.23;;;24.63;;
46757;SDS011;32509;47.750;-3.396;2024-02-28T04:26:13;25.00;;;23.48;;
46757;SDS011;32509;47.750;-3.396;2024-02-28T04:28:40;26.83;;;25.15;;
46757;SDS011;32509;47.750;-3.396;2024-02-28T04:31:06;25.55;;;23.95;;
46757;SDS011;32509;47.750;-3.396;2024-02-28T04:33:35;25.40;;;23.85;;
46757;SDS011;32509;47.750;-3.396;2024-02-28T04:36:01;26.25;;;24.63;;
46757;SDS011;32509;47.750;-3.396;2024-02-28T04:38:28;27.60;;;25.52;;
46757;SDS011;32509;47.750;-3.396;2024-02-28T04:40:55;25.30;;;23.90;;
46757;SDS011;32509;47.750;-3.396;2024-02-28T04:43:21;24.55;;;23.05;;
46757;SDS011;32509;47.750;-3.396;2024-02-28T04:45:47;26.42;;;25.00;;
46757;SDS011;32509;47.750;-3.396;2024-02-28T04:48:13;25.80;;;24.20;;
46757;SDS011;32509;47.750;-3.396;2024-02-28T04:50:39;26.25;;;24.65;;
46757;SDS011;32509;47.750;-3.396;2024-02-28T04:53:05;25.02;;;23.48;;
46757;SDS011;32509;47.750;-3.396;2024-02-28T04:55:31;26.50;;;24.98;;
46757;SDS011;32509;47.750;-3.396;2024-02-28T04:57:57;26.55;;;24.77;;
46757;SDS011;32509;47.750;-3.396;2024-02-28T05:00:23;26.33;;;24.70;;
46757;SDS011;32509;47.750;-3.396;2024-02-28T05:02:49;25.05;;;23.65;;
46757;SDS011;32509;47.750;-3.396;2024-02-28T05:05:15;25.60;;;24.15;;
46757;SDS011;32509;47.750;-3.396;2024-02-28T05:07:41;28.17;;;26.55;;
46757;SDS011;32509;47.750;-3.396;2024-02-28T05:10:07;27.67;;;25.90;;
46757;SDS011;32509;47.750;-3.396;2024-02-28T05:12:34;26.40;;;25.00;;
46757;SDS011;32509;47.750;-3.396;2024-02-28T05:15:00;26.30;;;24.73;;
46757;SDS011;32509;47.750;-3.396;2024-02-28T05:17:26;26.33;;;24.83;;
46757;SDS011;32509;47.750;-3.396;2024-02-28T05:19:52;25.27;;;23.80;;
46757;SDS011;32509;47.750;-3.396;2024-02-28T05:22:18;26.60;;;24.98;;
46757;SDS011;32509;47.750;-3.396;2024-02-28T05:24:49;27.13;;;25.52;;
46757;SDS011;32509;47.750;-3.396;2024-02-28T05:27:15;26.42;;;24.92;;
46757;SDS011;32509;47.750;-3.396;2024-02-28T05:29:41;28.27;;;26.27;;
46757;SDS011;32509;47.750;-3.396;2024-02-28T05:32:08;27.70;;;25.83;;
46757;SDS011;32509;47.750;-3.396;2024-02-28T05:34:34;26.08;;;24.55;;
46757;SDS011;32509;47.750;-3.396;2024-02-28T05:37:00;26.63;;;25.02;;
46757;SDS011;32509;47.750;-3.396;2024-02-28T05:39:27;26.55;;;25.00;;
46757;SDS011;32509;47.750;-3.396;2024-02-28T05:41:54;26.38;;;24.67;;
46757;SDS011;32509;47.750;-3.396;2024-02-28T05:44:20;26.27;;;24.80;;
46757;SDS011;32509;47.750;-3.396;2024-02-28T05:46:46;26.75;;;25.17;;
46757;SDS011;32509;47.750;-3.396;2024-02-28T05:49:13;26.00;;;24.55;;
46757;SDS011;32509;47.750;-3.396;2024-02-28T05:51:39;26.10;;;24.60;;
46757;SDS011;32509;47.750;-3.396;2024-02-28T05:54:05;26.60;;;24.77;;
46757;SDS011;32509;47.750;-3.396;2024-02-28T05:56:31;27.65;;;25.88;;
46757;SDS011;32509;47.750;-3.396;2024-02-28T05:58:57;29.50;;;27.42;;
46757;SDS011;32509;47.750;-3.396;2024-02-28T06:01:23;25.73;;;24.33;;
46757;SDS011;32509;47.750;-3.396;2024-02-28T06:03:49;25.33;;;24.02;;
46757;SDS011;32509;47.750;-3.396;2024-02-28T06:06:16;26.40;;;24.90;;
46757;SDS011;32509;47.750;-3.396;2024-02-28T06:08:42;26.70;;;25.10;;
46757;SDS011;32509;47.750;-3.396;2024-02-28T06:11:08;27.20;;;25.60;;
46757;SDS011;32509;47.750;-3.396;2024-02-28T06:13:35;26.77;;;25.17;;
46757;SDS011;32509;47.750;-3.396;2024-02-28T06:16:01;27.00;;;25.33;;
46757;SDS011;32509;47.750;-3.396;2024-02-28T06:18:27;26.35;;;24.75;;
46757;SDS011;32509;47.750;-3.396;2024-02-28T06:20:55;27.38;;;25.80;;
46757;SDS011;32509;47.750;-3.396;2024-02-28T06:23:22;26.63;;;25.02;;
46757;SDS011;32509;47.750;-3.396;2024-02-28T06:25:48;26.55;;;24.88;;
46757;SDS011;32509;47.750;-3.396;2024-02-28T06:28:14;26.00;;;24.60;;
46757;SDS011;32509;47.750;-3.396;2024-02-28T06:30:41;25.92;;;24.25;;
46757;SDS011;32509;47.750;-3.396;2024-02-28T06:33:07;26.60;;;25.10;;
46757;SDS011;32509;47.750;-3.396;2024-02-28T06:35:34;25.55;;;24.15;;
46757;SDS011;32509;47.750;-3.396;2024-02-28T06:38:00;26.35;;;24.58;;
46757;SDS011;32509;47.750;-3.396;2024-02-28T06:40:26;24.88;;;23.40;;
46757;SDS011;32509;47.750;-3.396;2024-02-28T06:42:53;23.98;;;22.52;;
46757;SDS011;32509;47.750;-3.396;2024-02-28T06:45:19;24.73;;;23.33;;
46757;SDS011;32509;47.750;-3.396;2024-02-28T06:47:46;25.42;;;23.92;;
46757;SDS011;32509;47.750;-3.396;2024-02-28T06:50:13;23.98;;;22.58;;
46757;SDS011;32509;47.750;-3.396;2024-02-28T06:52:40;26.25;;;24.75;;
46757;SDS011;32509;47.750;-3.396;2024-02-28T06:55:06;25.15;;;23.63;;
46757;SDS011;32509;47.750;-3.396;2024-02-28T06:57:39;24.98;;;23.33;;
46757;SDS011;32509;47.750;-3.396;2024-02-28T07:00:06;25.10;;;23.58;;
46757;SDS011;32509;47.750;-3.396;2024-02-28T07:02:39;24.85;;;23.55;;
46757;SDS011;32509;47.750;-3.396;2024-02-28T07:05:06;25.92;;;24.52;;
46757;SDS011;32509;47.750;-3.396;2024-02-28T07:07:32;25.05;;;23.65;;
46757;SDS011;32509;47.750;-3.396;2024-02-28T07:09:58;23.45;;;22.13;;
46757;SDS011;32509;47.750;-3.396;2024-02-28T07:12:25;25.83;;;24.33;;
46757;SDS011;32509;47.750;-3.396;2024-02-28T07:14:51;25.38;;;24.08;;
46757;SDS011;32509;47.750;-3.396;2024-02-28T07:17:17;26.90;;;25.27;;
46757;SDS011;32509;47.750;-3.396;2024-02-28T07:19:43;25.98;;;24.42;;
46757;SDS011;32509;47.750;-3.396;2024-02-28T07:22:09;26.63;;;25.02;;
46757;SDS011;32509;47.750;-3.396;2024-02-28T07:24:35;26.20;;;24.67;;
46757;SDS011;32509;47.750;-3.396;2024-02-28T07:27:02;26.80;;;25.38;;
46757;SDS011;32509;47.750;-3.396;2024-02-28T07:29:28;26.10;;;24.52;;
46757;SDS011;32509;47.750;-3.396;2024-02-28T07:31:54;25.05;;;23.65;;
46757;SDS011;32509;47.750;-3.396;2024-02-28T07:34:20;27.02;;;25.55;;
46757;SDS011;32509;47.750;-3.396;2024-02-28T07:36:46;25.48;;;23.95;;
46757;SDS011;32509;47.750;-3.396;2024-02-28T07:39:13;25.58;;;24.23;;
46757;SDS011;32509;47.750;-3.396;2024-02-28T07:41:39;25.08;;;23.83;;
46757;SDS011;32509;47.750;-3.396;2024-02-28T07:44:06;25.48;;;24.17;;
46757;SDS011;32509;47.750;-3.396;2024-02-28T07:46:33;24.33;;;23.02;;
46757;SDS011;32509;47.750;-3.396;2024-02-28T07:48:59;24.80;;;23.40;;
46757;SDS011;32509;47.750;-3.396;2024-02-28T07:51:26;26.75;;;25.15;;
46757;SDS011;32509;47.750;-3.396;2024-02-28T07:53:52;27.52;;;25.70;;
46757;SDS011;32509;47.750;-3.396;2024-02-28T07:56:18;26.25;;;24.70;;
46757;SDS011;32509;47.750;-3.396;2024-02-28T07:58:44;25.60;;;24.10;;
46757;SDS011;32509;47.750;-3.396;2024-02-28T08:01:11;26.88;;;25.38;;
46757;SDS011;32509;47.750;-3.396;2024-02-28T08:03:37;27.30;;;25.60;;
46757;SDS011;32509;47.750;-3.396;2024-02-28T08:06:03;26.58;;;24.85;;
46757;SDS011;32509;47.750;-3.396;2024-02-28T08:08:29;25.73;;;24.33;;
46757;SDS011;32509;47.750;-3.396;2024-02-28T08:10:56;30.45;;;28.58;;
46757;SDS011;32509;47.750;-3.396;2024-02-28T08:13:22;29.17;;;27.27;;
46757;SDS011;32509;47.750;-3.396;2024-02-28T08:15:48;33.25;;;31.33;;
46757;SDS011;32509;47.750;-3.396;2024-02-28T08:18:14;26.67;;;25.23;;
46757;SDS011;32509;47.750;-3.396;2024-02-28T08:20:40;27.23;;;25.45;;
46757;SDS011;32509;47.750;-3.396;2024-02-28T08:23:07;33.42;;;31.08;;
46757;SDS011;32509;47.750;-3.396;2024-02-28T08:25:33;28.42;;;26.80;;
46757;SDS011;32509;47.750;-3.396;2024-02-28T08:27:59;27.40;;;25.85;;
46757;SDS011;32509;47.750;-3.396;2024-02-28T08:30:25;28.40;;;26.70;;
46757;SDS011;32509;47.750;-3.396;2024-02-28T08:32:51;29.40;;;27.60;;
46757;SDS011;32509;47.750;-3.396;2024-02-28T08:35:20;29.00;;;27.30;;
46757;SDS011;32509;47.750;-3.396;2024-02-28T08:37:48;25.52;;;24.05;;
46757;SDS011;32509;47.750;-3.396;2024-02-28T08:40:14;25.90;;;24.40;;
46757;SDS011;32509;47.750;-3.396;2024-02-28T08:42:40;26.77;;;25.17;;
46757;SDS011;32509;47.750;-3.396;2024-02-28T08:45:07;26.15;;;24.75;;
46757;SDS011;32509;47.750;-3.396;2024-02-28T08:47:33;25.20;;;23.80;;
46757;SDS011;32509;47.750;-3.396;2024-02-28T08:49:59;27.67;;;25.98;;
46757;SDS011;32509;47.750;-3.396;2024-02-28T08:52:25;46.50;;;27.65;;
46757;SDS011;32509;47.750;-3.396;2024-02-28T08:54:51;31.45;;;28.95;;
46757;SDS011;32509;47.750;-3.396;2024-02-28T08:57:18;25.80;;;24.13;;
46757;SDS011;32509;47.750;-3.396;2024-02-28T08:59:47;26.75;;;24.60;;
46757;SDS011;32509;47.750;-3.396;2024-02-28T09:02:13;26.58;;;24.63;;
46757;SDS011;32509;47.750;-3.396;2024-02-28T09:04:39;27.35;;;25.13;;
46757;SDS011;32509;47.750;-3.396;2024-02-28T09:07:05;26.83;;;24.88;;
46757;SDS011;32509;47.750;-3.396;2024-02-28T09:09:32;25.08;;;23.67;;
46757;SDS011;32509;47.750;-3.396;2024-02-28T09:12:02;25.17;;;23.45;;
46757;SDS011;32509;47.750;-3.396;2024-02-28T09:14:29;25.27;;;23.75;;
46757;SDS011;32509;47.750;-3.396;2024-02-28T09:16:55;25.58;;;23.98;;
46757;SDS011;32509;47.750;-3.396;2024-02-28T09:19:28;24.92;;;23.33;;
46757;SDS011;32509;47.750;-3.396;2024-02-28T09:21:54;23.02;;;21.52;;
46757;SDS011;32509;47.750;-3.396;2024-02-28T09:24:20;23.45;;;22.08;;
46757;SDS011;32509;47.750;-3.396;2024-02-28T09:26:46;22.90;;;21.33;;
46757;SDS011;32509;47.750;-3.396;2024-02-28T09:29:12;23.98;;;22.65;;
46757;SDS011;32509;47.750;-3.396;2024-02-28T09:31:38;25.00;;;23.65;;
46757;SDS011;32509;47.750;-3.396;2024-02-28T09:34:04;24.42;;;22.95;;
46757;SDS011;32509;47.750;-3.396;2024-02-28T09:36:33;24.10;;;22.48;;
46757;SDS011;32509;47.750;-3.396;2024-02-28T09:38:59;24.35;;;22.50;;
46757;SDS011;32509;47.750;-3.396;2024-02-28T09:41:25;24.05;;;22.25;;
46757;SDS011;32509;47.750;-3.396;2024-02-28T09:43:52;23.50;;;22.02;;
46757;SDS011;32509;47.750;-3.396;2024-02-28T09:46:18;22.85;;;21.65;;
46757;SDS011;32509;47.750;-3.396;2024-02-28T09:48:44;24.50;;;23.00;;
46757;SDS011;32509;47.750;-3.396;2024-02-28T09:51:15;24.08;;;22.73;;
46757;SDS011;32509;47.750;-3.396;2024-02-28T09:53:43;21.55;;;20.40;;
46757;SDS011;32509;47.750;-3.396;2024-02-28T09:56:09;23.60;;;22.30;;
46757;SDS011;32509;47.750;-3.396;2024-02-28T10:01:11;24.42;;;22.92;;
46757;SDS011;32509;47.750;-3.396;2024-02-28T10:03:38;24.83;;;23.38;;
46757;SDS011;32509;47.750;-3.396;2024-02-28T10:06:05;24.73;;;23.23;;
46757;SDS011;32509;47.750;-3.396;2024-02-28T10:08:31;25.67;;;24.23;;
46757;SDS011;32509;47.750;-3.396;2024-02-28T10:10:59;24.15;;;22.75;;
46757;SDS011;32509;47.750;-3.396;2024-02-28T10:13:25;23.23;;;21.92;;
46757;SDS011;32509;47.750;-3.396;2024-02-28T10:15:52;24.17;;;22.60;;
46757;SDS011;32509;47.750;-3.396;2024-02-28T10:18:19;23.77;;;22.27;;
46757;SDS011;32509;47.750;-3.396;2024-02-28T10:20:45;22.42;;;21.17;;
46757;SDS011;32509;47.750;-3.396;2024-02-28T10:23:12;23.00;;;21.42;;
46757;SDS011;32509;47.750;-3.396;2024-02-28T10:25:45;22.95;;;21.55;;
46757;SDS011;32509;47.750;-3.396;2024-02-28T10:28:11;23.52;;;22.17;;
46757;SDS011;32509;47.750;-3.396;2024-02-28T10:30:42;25.25;;;23.75;;
46757;SDS011;32509;47.750;-3.396;2024-02-28T10:33:12;23.38;;;22.05;;
46757;SDS011;32509;47.750;-3.396;2024-02-28T10:35:41;23.67;;;22.27;;
46757;SDS011;32509;47.750;-3.396;2024-02-28T10:38:09;24.05;;;22.58;;
46757;SDS011;32509;47.750;-3.396;2024-02-28T10:40:36;22.05;;;20.85;;
46757;SDS011;32509;47.750;-3.396;2024-02-28T10:43:02;22.05;;;20.95;;
46757;SDS011;32509;47.750;-3.396;2024-02-28T10:45:32;23.00;;;21.65;;
46757;SDS011;32509;47.750;-3.396;2024-02-28T10:47:59;23.92;;;22.48;;
46757;SDS011;32509;47.750;-3.396;2024-02-28T10:50:26;24.30;;;23.08;;
46757;SDS011;32509;47.750;-3.396;2024-02-28T10:52:52;23.42;;;21.75;;
46757;SDS011;32509;47.750;-3.396;2024-02-28T10:55:20;23.48;;;22.10;;
46757;SDS011;32509;47.750;-3.396;2024-02-28T10:57:53;24.67;;;23.17;;
46757;SDS011;32509;47.750;-3.396;2024-02-28T11:00:24;23.65;;;22.02;;
46757;SDS011;32509;47.750;-3.396;2024-02-28T11:02:50;24.40;;;22.90;;
46757;SDS011;32509;47.750;-3.396;2024-02-28T11:05:16;23.38;;;21.85;;
46757;SDS011;32509;47.750;-3.396;2024-02-28T11:07:43;23.48;;;21.98;;
46757;SDS011;32509;47.750;-3.396;2024-02-28T11:10:09;23.58;;;22.25;;
46757;SDS011;32509;47.750;-3.396;2024-02-28T11:12:35;23.70;;;22.00;;
46757;SDS011;32509;47.750;-3.396;2024-02-28T11:15:03;23.98;;;22.58;;
46757;SDS011;32509;47.750;-3.396;2024-02-28T11:17:32;24.05;;;22.13;;
46757;SDS011;32509;47.750;-3.396;2024-02-28T11:19:58;23.92;;;22.42;;
46757;SDS011;32509;47.750;-3.396;2024-02-28T11:22:27;23.20;;;21.65;;
46757;SDS011;32509;47.750;-3.396;2024-02-28T11:24:54;24.80;;;23.33;;
46757;SDS011;32509;47.750;-3.396;2024-02-28T11:27:20;24.08;;;22.55;;
46757;SDS011;32509;47.750;-3.396;2024-02-28T11:29:47;24.10;;;22.48;;
46757;SDS011;32509;47.750;-3.396;2024-02-28T11:32:14;23.77;;;22.20;;
46757;SDS011;32509;47.750;-3.396;2024-02-28T11:34:41;24.05;;;22.60;;
46757;SDS011;32509;47.750;-3.396;2024-02-28T11:37:08;24.58;;;22.98;;
46757;SDS011;32509;47.750;-3.396;2024-02-28T11:39:35;25.00;;;23.30;;
46757;SDS011;32509;47.750;-3.396;2024-02-28T11:42:11;23.00;;;20.88;;
46757;SDS011;32509;47.750;-3.396;2024-02-28T11:44:40;21.63;;;20.05;;
46757;SDS011;32509;47.750;-3.396;2024-02-28T11:47:10;22.30;;;20.80;;
46757;SDS011;32509;47.750;-3.396;2024-02-28T11:49:36;23.52;;;22.02;;
46757;SDS011;32509;47.750;-3.396;2024-02-28T11:52:03;23.65;;;21.90;;
46757;SDS011;32509;47.750;-3.396;2024-02-28T11:54:29;24.58;;;22.20;;
46757;SDS011;32509;47.750;-3.396;2024-02-28T11:56:56;24.85;;;23.02;;
46757;SDS011;32509;47.750;-3.396;2024-02-28T11:59:22;25.40;;;23.08;;
46757;SDS011;32509;47.750;-3.396;2024-02-28T12:01:48;24.88;;;22.73;;
46757;SDS011;32509;47.750;-3.396;2024-02-28T12:04:15;24.38;;;22.85;;
46757;SDS011;32509;47.750;-3.396;2024-02-28T12:06:42;23.98;;;22.10;;
46757;SDS011;32509;47.750;-3.396;2024-02-28T12:09:09;22.52;;;20.73;;
46757;SDS011;32509;47.750;-3.396;2024-02-28T12:11:36;22.63;;;20.95;;
46757;SDS011;32509;47.750;-3.396;2024-02-28T12:14:02;23.17;;;21.58;;
46757;SDS011;32509;47.750;-3.396;2024-02-28T12:16:30;22.50;;;21.20;;
46757;SDS011;32509;47.750;-3.396;2024-02-28T12:18:56;23.40;;;21.88;;
46757;SDS011;32509;47.750;-3.396;2024-02-28T12:21:22;24.25;;;22.55;;
46757;SDS011;32509;47.750;-3.396;2024-02-28T12:23:49;25.33;;;23.60;;
46757;SDS011;32509;47.750;-3.396;2024-02-28T12:26:18;23.33;;;21.77;;
46757;SDS011;32509;47.750;-3.396;2024-02-28T12:28:45;23.25;;;21.95;;
46757;SDS011;32509;47.750;-3.396;2024-02-28T12:31:11;23.85;;;22.38;;
46757;SDS011;32509;47.750;-3.396;2024-02-28T12:33:38;24.65;;;23.02;;
46757;SDS011;32509;47.750;-3.396;2024-02-28T12:36:04;23.30;;;21.88;;
46757;SDS011;32509;47.750;-3.396;2024-02-28T12:38:31;24.00;;;22.48;;
46757;SDS011;32509;47.750;-3.396;2024-02-28T12:40:57;23.65;;;22.35;;
46757;SDS011;32509;47.750;-3.396;2024-02-28T12:43:23;24.55;;;23.15;;
46757;SDS011;32509;47.750;-3.396;2024-02-28T12:45:50;24.25;;;22.75;;
46757;SDS011;32509;47.750;-3.396;2024-02-28T12:48:16;24.08;;;22.55;;
46757;SDS011;32509;47.750;-3.396;2024-02-28T12:50:42;25.00;;;23.27;;
46757;SDS011;32509;47.750;-3.396;2024-02-28T12:53:09;23.10;;;21.70;;
46757;SDS011;32509;47.750;-3.396;2024-02-28T12:55:35;23.90;;;22.27;;
46757;SDS011;32509;47.750;-3.396;2024-02-28T12:58:01;22.42;;;21.13;;
46757;SDS011;32509;47.750;-3.396;2024-02-28T13:00:30;25.13;;;23.30;;
46757;SDS011;32509;47.750;-3.396;2024-02-28T13:02:56;22.38;;;20.83;;
46757;SDS011;32509;47.750;-3.396;2024-02-28T13:05:22;25.27;;;23.60;;
46757;SDS011;32509;47.750;-3.396;2024-02-28T13:07:49;26.20;;;24.50;;
46757;SDS011;32509;47.750;-3.396;2024-02-28T13:10:15;26.70;;;24.58;;
46757;SDS011;32509;47.750;-3.396;2024-02-28T13:12:41;25.25;;;23.52;;
46757;SDS011;32509;47.750;-3.396;2024-02-28T13:15:07;25.58;;;24.17;;
46757;SDS011;32509;47.750;-3.396;2024-02-28T13:17:33;26.02;;;24.38;;
46757;SDS011;32509;47.750;-3.396;2024-02-28T13:19:59;27.30;;;25.70;;
46757;SDS011;32509;47.750;-3.396;2024-02-28T13:22:25;26.40;;;24.83;;
46757;SDS011;32509;47.750;-3.396;2024-02-28T13:24:51;26.05;;;24.20;;
46757;SDS011;32509;47.750;-3.396;2024-02-28T13:27:17;26.42;;;24.58;;
46757;SDS011;32509;47.750;-3.396;2024-02-28T13:29:43;26.90;;;25.35;;
46757;SDS011;32509;47.750;-3.396;2024-02-28T13:32:09;26.25;;;24.45;;
46757;SDS011;32509;47.750;-3.396;2024-02-28T13:34:36;25.85;;;24.02;;
46757;SDS011;32509;47.750;-3.396;2024-02-28T13:37:02;29.58;;;27.88;;
46757;SDS011;32509;47.750;-3.396;2024-02-28T13:39:28;28.95;;;27.05;;
46757;SDS011;32509;47.750;-3.396;2024-02-28T13:41:54;27.30;;;25.45;;
46757;SDS011;32509;47.750;-3.396;2024-02-28T13:44:21;26.65;;;25.15;;
46757;SDS011;32509;47.750;-3.396;2024-02-28T13:46:47;26.80;;;25.20;;
46757;SDS011;32509;47.750;-3.396;2024-02-28T13:49:13;27.63;;;25.67;;
46757;SDS011;32509;47.750;-3.396;2024-02-28T13:51:39;26.23;;;24.77;;
46757;SDS011;32509;47.750;-3.396;2024-02-28T13:54:06;28.02;;;26.02;;
46757;SDS011;32509;47.750;-3.396;2024-02-28T13:56:32;26.52;;;24.90;;
46757;SDS011;32509;47.750;-3.396;2024-02-28T13:58:59;27.13;;;25.45;;
46757;SDS011;32509;47.750;-3.396;2024-02-28T14:01:25;26.13;;;24.52;;
46757;SDS011;32509;47.750;-3.396;2024-02-28T14:03:51;28.08;;;26.38;;
46757;SDS011;32509;47.750;-3.396;2024-02-28T14:06:17;29.23;;;27.33;;
46757;SDS011;32509;47.750;-3.396;2024-02-28T14:08:43;27.70;;;25.65;;
46757;SDS011;32509;47.750;-3.396;2024-02-28T14:11:09;27.40;;;25.38;;
46757;SDS011;32509;47.750;-3.396;2024-02-28T14:13:36;28.10;;;26.27;;
46757;SDS011;32509;47.750;-3.396;2024-02-28T14:16:04;29.30;;;26.98;;
46757;SDS011;32509;47.750;-3.396;2024-02-28T14:18:30;27.77;;;25.85;;
46757;SDS011;32509;47.750;-3.396;2024-02-28T14:20:56;28.45;;;26.38;;
46757;SDS011;32509;47.750;-3.396;2024-02-28T14:23:23;27.98;;;26.15;;
46757;SDS011;32509;47.750;-3.396;2024-02-28T14:25:49;28.10;;;26.27;;
46757;SDS011;32509;47.750;-3.396;2024-02-28T14:28:15;30.02;;;28.23;;
46757;SDS011;32509;47.750;-3.396;2024-02-28T14:30:42;28.73;;;26.92;;
46757;SDS011;32509;47.750;-3.396;2024-02-28T14:33:08;28.45;;;26.50;;